createdAt,value
2024-03-04T00:00:17.180Z,93789.00
2024-03-04T00:01:17.464Z,93792.00
2024-03-04T00:02:17.407Z,93797.00
2024-03-04T00:03:17.400Z,93795.00
2024-03-04T00:04:17.535Z,93797.00
2024-03-04T00:05:17.519Z,93798.00
2024-03-04T00:06:17.636Z,93799.00
2024-03-04T00:07:17.717Z,93800.00
2024-03-04T00:08:17.806Z,93798.00
2024-03-04T00:09:17.815Z,93798.00
2024-03-04T00:10:17.904Z,93801.00
2024-03-04T00:11:17.965Z,93802.00
2024-03-04T00:12:17.988Z,93807.00
2024-03-04T00:13:18.128Z,93807.00
2024-03-04T00:14:18.115Z,93804.00
2024-03-04T00:15:18.214Z,93803.00
2024-03-04T00:16:18.286Z,93800.00
2024-03-04T00:17:18.323Z,93802.00
2024-03-04T00:18:18.432Z,93807.00
2024-03-04T00:19:18.518Z,93809.00
2024-03-04T00:20:18.527Z,93812.00
2024-03-04T00:21:18.591Z,93809.00
2024-03-04T00:22:18.738Z,93810.00
2024-03-04T00:23:18.745Z,93811.00
2024-03-04T00:24:18.801Z,93814.00
2024-03-04T00:25:18.902Z,93817.00
2024-03-04T00:26:18.953Z,93818.00
2024-03-04T00:27:18.999Z,93817.00
2024-03-04T00:28:19.137Z,93819.00
2024-03-04T00:29:19.174Z,93821.00
2024-03-04T00:30:19.213Z,93822.00
2024-03-04T00:31:19.344Z,93822.00
2024-03-04T00:32:19.344Z,93822.00
2024-03-04T00:33:19.454Z,93824.00
2024-03-04T00:34:19.543Z,93824.00
2024-03-04T00:35:19.537Z,93825.00
2024-03-04T00:36:19.622Z,93826.00
2024-03-04T00:37:19.691Z,93826.00
2024-03-04T00:38:19.762Z,93825.00
2024-03-04T00:39:19.840Z,93824.00
2024-03-04T00:40:20.044Z,93827.00
2024-03-04T00:41:19.999Z,93824.00
2024-03-04T00:42:20.039Z,93826.00
2024-03-04T00:43:20.184Z,93827.00
2024-03-04T00:44:20.203Z,93827.00
2024-03-04T00:45:20.258Z,93829.00
2024-03-04T00:46:20.407Z,93832.00
2024-03-04T00:47:20.390Z,93832.00
2024-03-04T00:48:20.563Z,93828.00
2024-03-04T00:49:20.603Z,93826.00
2024-03-04T00:50:20.630Z,93825.00
2024-03-04T00:51:20.680Z,93821.00
2024-03-04T00:52:20.802Z,93823.00
2024-03-04T00:53:20.824Z,93824.00
2024-03-04T00:54:20.910Z,93823.00
2024-03-04T00:55:21.006Z,93818.00
2024-03-04T00:56:21.104Z,93819.00
2024-03-04T00:57:21.109Z,93816.00
2024-03-04T00:58:21.276Z,93818.00
2024-03-04T00:59:21.254Z,93821.00
2024-03-04T01:00:21.319Z,93822.00
2024-03-04T01:01:21.441Z,93822.00
2024-03-04T01:02:21.516Z,93821.00
2024-03-04T01:03:21.488Z,93822.00
2024-03-04T01:04:21.591Z,93823.00
2024-03-04T01:05:21.621Z,93826.00
2024-03-04T01:06:21.714Z,93834.00
2024-03-04T01:07:21.768Z,93833.00
2024-03-04T01:08:21.834Z,93831.00
2024-03-04T01:09:21.902Z,93832.00
2024-03-04T01:10:22.005Z,93838.00
2024-03-04T01:11:22.086Z,93840.00
2024-03-04T01:12:22.099Z,93834.00
2024-03-04T01:13:22.192Z,93829.00
2024-03-04T01:14:22.268Z,93830.00
2024-03-04T01:15:22.304Z,93830.00
2024-03-04T01:16:22.405Z,93833.00
2024-03-04T01:17:22.497Z,93836.00
2024-03-04T01:18:22.582Z,93835.00
2024-03-04T01:19:22.633Z,93831.00
2024-03-04T01:20:22.651Z,93832.00
2024-03-04T01:21:22.724Z,93830.00
2024-03-04T01:22:22.864Z,93827.00
2024-03-04T01:23:22.870Z,93829.00
2024-03-04T01:24:22.944Z,93838.00
2024-03-04T01:25:23.041Z,93837.00
2024-03-04T01:26:23.075Z,93836.00
2024-03-04T01:27:23.152Z,93837.00
2024-03-04T01:28:23.292Z,93829.00
2024-03-04T01:29:23.269Z,93824.00
2024-03-04T01:30:23.384Z,93818.00
2024-03-04T01:31:23.435Z,93824.00
2024-03-04T01:32:23.494Z,93829.00
2024-03-04T01:33:23.533Z,93826.00
2024-03-04T01:34:23.660Z,93823.00
2024-03-04T01:35:23.625Z,93826.00
2024-03-04T01:36:23.664Z,93828.00
2024-03-04T01:37:23.800Z,93831.00
2024-03-04T01:38:23.809Z,93833.00
2024-03-04T01:39:23.870Z,93836.00
2024-03-04T01:40:23.963Z,93834.00
2024-03-04T01:41:23.985Z,93838.00
2024-03-04T01:42:24.054Z,93839.00
2024-03-04T01:43:24.141Z,93838.00
2024-03-04T01:44:24.165Z,93838.00
2024-03-04T01:45:24.240Z,93842.00
2024-03-04T01:46:24.332Z,93842.00
2024-03-04T01:47:24.367Z,93845.00
2024-03-04T01:48:24.350Z,93845.00
2024-03-04T01:49:24.424Z,93845.00
2024-03-04T01:50:24.468Z,93842.00
2024-03-04T01:51:24.506Z,93837.00
2024-03-04T01:52:24.580Z,93838.00
2024-03-04T01:53:24.610Z,93835.00
2024-03-04T01:54:24.679Z,93831.00
2024-03-04T01:55:24.789Z,93832.00
2024-03-04T01:56:24.740Z,93830.00
2024-03-04T01:57:24.791Z,93832.00
2024-03-04T01:58:24.858Z,93834.00
2024-03-04T01:59:24.892Z,93840.00
2024-03-04T02:00:24.950Z,93844.00
2024-03-04T02:01:25.058Z,93844.00
2024-03-04T02:02:24.986Z,93845.00
2024-03-04T02:03:25.050Z,93845.00
2024-03-04T02:04:25.146Z,93847.00
2024-03-04T02:05:25.118Z,93846.00
2024-03-04T02:06:25.164Z,93847.00
2024-03-04T02:07:25.187Z,93846.00
2024-03-04T02:08:25.217Z,93849.00
2024-03-04T02:09:25.279Z,93849.00
2024-03-04T02:10:25.325Z,93853.00
2024-03-04T02:11:25.357Z,93855.00
2024-03-04T02:12:25.343Z,93855.00
2024-03-04T02:13:25.413Z,93855.00
2024-03-04T02:14:25.438Z,93855.00
2024-03-04T02:15:25.432Z,93856.00
2024-03-04T02:16:25.508Z,93859.00
2024-03-04T02:17:25.507Z,93861.00
2024-03-04T02:18:25.475Z,93863.00
2024-03-04T02:19:25.622Z,93864.00
2024-03-04T02:20:25.562Z,93871.00
2024-03-04T02:21:25.564Z,93871.00
2024-03-04T02:22:25.636Z,93875.00
2024-03-04T02:23:25.599Z,93878.00
2024-03-04T02:24:25.668Z,93882.00
2024-03-04T02:25:25.715Z,93883.00
2024-03-04T02:26:25.633Z,93883.00
2024-03-04T02:27:25.624Z,93884.00
2024-03-04T02:28:25.787Z,93882.00
2024-03-04T02:29:25.751Z,93881.00
2024-03-04T02:30:25.668Z,93883.00
2024-03-04T02:31:25.716Z,93882.00
2024-03-04T02:32:25.703Z,93880.00
2024-03-04T02:33:25.706Z,93880.00
2024-03-04T02:34:25.752Z,93878.00
2024-03-04T02:35:25.732Z,93879.00
2024-03-04T02:36:25.763Z,93879.00
2024-03-04T02:37:25.868Z,93881.00
2024-03-04T02:38:25.755Z,93882.00
2024-03-04T02:39:25.809Z,93882.00
2024-03-04T02:40:25.803Z,93884.00
2024-03-04T02:41:25.768Z,93882.00
2024-03-04T02:42:25.737Z,93880.00
2024-03-04T02:43:25.836Z,93878.00
2024-03-04T02:44:25.767Z,93877.00
2024-03-04T02:45:25.810Z,93874.00
2024-03-04T02:46:25.878Z,93873.00
2024-03-04T02:47:25.792Z,93869.00
2024-03-04T02:48:25.792Z,93870.00
2024-03-04T02:49:25.847Z,93868.00
2024-03-04T02:50:25.769Z,93868.00
2024-03-04T02:51:25.794Z,93869.00
2024-03-04T02:52:25.848Z,93873.00
2024-03-04T02:53:25.828Z,93874.00
2024-03-04T02:54:25.820Z,93878.00
2024-03-04T02:55:25.834Z,93876.00
2024-03-04T02:56:25.836Z,93872.00
2024-03-04T02:57:25.857Z,93870.00
2024-03-04T02:58:25.856Z,93870.00
2024-03-04T02:59:25.867Z,93868.00
2024-03-04T03:00:25.841Z,93868.00
2024-03-04T03:01:25.928Z,93870.00
2024-03-04T03:02:25.852Z,93873.00
2024-03-04T03:03:25.840Z,93876.00
2024-03-04T03:04:25.863Z,93877.00
2024-03-04T03:05:25.832Z,93880.00
2024-03-04T03:06:25.863Z,93880.00
2024-03-04T03:07:25.920Z,93882.00
2024-03-04T03:08:25.851Z,93883.00
2024-03-04T03:09:25.884Z,93885.00
2024-03-04T03:10:25.951Z,93884.00
2024-03-04T03:11:25.920Z,93884.00
2024-03-04T03:12:25.911Z,93884.00
2024-03-04T03:13:25.939Z,93884.00
2024-03-04T03:14:25.923Z,93884.00
2024-03-04T03:15:25.945Z,93886.00
2024-03-04T03:16:25.952Z,93890.00
2024-03-04T03:17:25.915Z,93896.00
2024-03-04T03:18:25.927Z,93895.00
2024-03-04T03:19:25.989Z,93899.00
2024-03-04T03:20:25.921Z,93901.00
2024-03-04T03:21:25.908Z,93902.00
2024-03-04T03:22:25.947Z,93902.00
2024-03-04T03:23:25.952Z,93905.00
2024-03-04T03:24:25.956Z,93906.00
2024-03-04T03:25:25.980Z,93909.00
2024-03-04T03:26:25.941Z,93905.00
2024-03-04T03:27:25.947Z,93911.00
2024-03-04T03:28:25.993Z,93912.00
2024-03-04T03:29:25.935Z,93915.00
2024-03-04T03:30:25.953Z,93920.00
2024-03-04T03:31:25.997Z,93921.00
2024-03-04T03:32:26.023Z,93921.00
2024-03-04T03:33:25.964Z,93922.00
2024-03-04T03:34:26.091Z,93924.00
2024-03-04T03:35:26.020Z,93923.00
2024-03-04T03:36:25.972Z,93927.00
2024-03-04T03:37:25.974Z,93928.00
2024-03-04T03:38:26.037Z,93932.00
2024-03-04T03:39:25.980Z,93936.00
2024-03-04T03:40:26.024Z,93939.00
2024-03-04T03:41:25.993Z,93938.00
2024-03-04T03:42:26.023Z,93938.00
2024-03-04T03:43:26.043Z,93940.00
2024-03-04T03:44:26.072Z,93945.00
2024-03-04T03:45:26.023Z,93947.00
2024-03-04T03:46:26.086Z,93945.00
2024-03-04T03:47:26.116Z,93945.00
2024-03-04T03:48:26.081Z,93946.00
2024-03-04T03:49:26.072Z,93945.00
2024-03-04T03:50:26.076Z,93946.00
2024-03-04T03:51:26.076Z,93945.00
2024-03-04T03:52:26.145Z,93947.00
2024-03-04T03:53:26.063Z,93948.00
2024-03-04T03:54:26.071Z,93950.00
2024-03-04T03:55:26.104Z,93952.00
2024-03-04T03:56:26.127Z,93951.00
2024-03-04T03:57:27.943Z,93950.00
2024-03-04T03:58:26.129Z,93951.00
2024-03-04T03:59:26.124Z,93952.00
2024-03-04T04:00:28.370Z,93953.00
2024-03-04T04:01:26.214Z,93957.00
2024-03-04T04:02:26.122Z,93959.00
2024-03-04T04:03:26.139Z,93960.00
2024-03-04T04:04:26.207Z,93961.00
2024-03-04T04:05:26.154Z,93962.00
2024-03-04T04:06:26.129Z,93963.00
2024-03-04T04:07:26.192Z,93965.00
2024-03-04T04:08:26.155Z,93963.00
2024-03-04T04:09:26.135Z,93964.00
2024-03-04T04:10:26.220Z,93967.00
2024-03-04T04:11:26.191Z,93968.00
2024-03-04T04:12:26.129Z,93968.00
2024-03-04T04:13:26.201Z,93968.00
2024-03-04T04:14:26.156Z,93971.00
2024-03-04T04:15:29.567Z,93973.00
2024-03-04T04:16:26.164Z,93973.00
2024-03-04T04:17:26.163Z,93975.00
2024-03-04T04:18:26.177Z,93975.00
2024-03-04T04:19:26.188Z,93975.00
2024-03-04T04:20:26.144Z,93973.00
2024-03-04T04:21:26.218Z,93976.00
2024-03-04T04:22:26.183Z,93977.00
2024-03-04T04:23:26.125Z,93975.00
2024-03-04T04:24:26.149Z,93974.00
2024-03-04T04:25:26.207Z,93972.00
2024-03-04T04:26:26.156Z,93973.00
2024-03-04T04:27:26.123Z,93972.00
2024-03-04T04:28:33.525Z,93973.00
2024-03-04T04:29:33.385Z,93976.00
2024-03-04T04:30:33.350Z,93976.00
2024-03-04T04:31:40.588Z,93976.00
2024-03-04T04:32:40.609Z,93980.00
2024-03-04T04:33:40.668Z,93981.00
2024-03-04T04:34:40.700Z,93983.00
2024-03-04T04:35:40.618Z,93982.00
2024-03-04T04:36:40.635Z,93984.00
2024-03-04T04:37:40.688Z,93984.00
2024-03-04T04:38:40.628Z,93980.00
2024-03-04T04:39:40.601Z,93984.00
2024-03-04T04:40:40.665Z,93984.00
2024-03-04T04:41:40.643Z,93983.00
2024-03-04T04:42:40.614Z,93983.00
2024-03-04T04:43:40.646Z,93982.00
2024-03-04T04:44:40.636Z,93985.00
2024-03-04T04:45:40.659Z,93984.00
2024-03-04T04:46:40.645Z,93986.00
2024-03-04T04:47:40.655Z,93983.00
2024-03-04T04:48:40.608Z,93986.00
2024-03-04T04:49:40.692Z,93986.00
2024-03-04T04:50:40.644Z,93986.00
2024-03-04T04:51:40.602Z,93986.00
2024-03-04T04:52:40.671Z,93988.00
2024-03-04T04:53:40.612Z,93990.00
2024-03-04T04:54:40.624Z,93992.00
2024-03-04T04:55:40.653Z,93993.00
2024-03-04T04:56:40.595Z,93992.00
2024-03-04T04:57:40.642Z,93991.00
2024-03-04T04:58:40.630Z,93994.00
2024-03-04T04:59:40.627Z,93995.00
2024-03-04T05:00:40.655Z,93995.00
2024-03-04T05:01:40.709Z,93995.00
2024-03-04T05:02:40.609Z,93993.00
2024-03-04T05:04:50.702Z,93996.00
2024-03-04T05:05:41.632Z,93996.00
2024-03-04T05:06:40.684Z,93997.00
2024-03-04T05:07:40.832Z,93998.00
2024-03-04T05:08:40.638Z,93995.00
2024-03-04T05:09:40.657Z,93996.00
2024-03-04T05:10:40.840Z,93995.00
2024-03-04T05:11:40.644Z,93995.00
2024-03-04T05:12:40.609Z,93997.00
2024-03-04T05:13:40.717Z,93996.00
2024-03-04T05:14:40.665Z,93997.00
2024-03-04T05:15:40.619Z,93996.00
2024-03-04T05:16:40.649Z,93997.00
2024-03-04T05:17:40.660Z,94000.00
2024-03-04T05:18:40.636Z,93999.00
2024-03-04T05:19:40.675Z,93998.00
2024-03-04T05:20:50.087Z,93999.00
2024-03-04T05:21:41.675Z,94000.00
2024-03-04T05:22:40.705Z,94003.00
2024-03-04T05:23:41.206Z,94006.00
2024-03-04T05:24:40.685Z,94007.00
2024-03-04T05:25:40.777Z,94010.00
2024-03-04T05:26:40.648Z,94010.00
2024-03-04T05:27:40.641Z,94015.00
2024-03-04T05:28:40.666Z,94020.00
2024-03-04T05:29:40.655Z,94020.00
2024-03-04T05:30:40.702Z,94022.00
2024-03-04T05:31:40.689Z,94027.00
2024-03-04T05:32:40.659Z,94027.00
2024-03-04T05:33:40.721Z,94028.00
2024-03-04T05:34:40.746Z,94028.00
2024-03-04T05:35:40.665Z,94025.00
2024-03-04T05:36:40.706Z,94026.00
2024-03-04T05:37:40.756Z,94026.00
2024-03-04T05:38:40.698Z,94025.00
2024-03-04T05:39:40.649Z,94028.00
2024-03-04T05:40:40.740Z,94028.00
2024-03-04T05:41:40.670Z,94033.00
2024-03-04T05:42:40.845Z,94036.00
2024-03-04T05:43:40.709Z,94037.00
2024-03-04T05:44:40.800Z,94041.00
2024-03-04T05:45:40.692Z,94040.00
2024-03-04T05:46:40.746Z,94044.00
2024-03-04T05:47:40.719Z,94044.00
2024-03-04T05:48:40.684Z,94043.00
2024-03-04T05:49:40.724Z,94042.00
2024-03-04T05:50:40.741Z,94043.00
2024-03-04T05:51:40.730Z,94043.00
2024-03-04T05:52:40.901Z,94043.00
2024-03-04T05:53:40.829Z,94041.00
2024-03-04T05:54:40.821Z,94042.00
2024-03-04T05:55:40.915Z,94045.00
2024-03-04T05:56:40.876Z,94049.00
2024-03-04T05:57:40.919Z,94048.00
2024-03-04T05:58:41.012Z,94052.00
2024-03-04T05:59:40.985Z,94053.00
2024-03-04T06:00:41.323Z,94054.00
2024-03-04T06:01:41.285Z,94058.00
2024-03-04T06:02:41.088Z,94056.00
2024-03-04T06:03:41.096Z,94060.00
2024-03-04T06:04:41.181Z,94062.00
2024-03-04T06:05:41.191Z,94064.00
2024-03-04T06:06:41.223Z,94064.00
2024-03-04T06:07:41.293Z,94066.00
2024-03-04T06:08:41.263Z,94068.00
2024-03-04T06:09:41.307Z,94068.00
2024-03-04T06:10:41.345Z,94070.00
2024-03-04T06:11:41.362Z,94069.00
2024-03-04T06:12:41.328Z,94069.00
2024-03-04T06:13:41.426Z,94068.00
2024-03-04T06:14:41.400Z,94067.00
2024-03-04T06:15:41.451Z,94068.00
2024-03-04T06:16:41.485Z,94063.00
2024-03-04T06:17:41.519Z,94065.00
2024-03-04T06:18:41.512Z,94066.00
2024-03-04T06:19:41.634Z,94065.00
2024-03-04T06:20:41.564Z,94066.00
2024-03-04T06:21:41.582Z,94069.00
2024-03-04T06:22:41.682Z,94070.00
2024-03-04T06:23:41.610Z,94068.00
2024-03-04T06:24:41.640Z,94071.00
2024-03-04T06:25:41.758Z,94071.00
2024-03-04T06:26:41.690Z,94071.00
2024-03-04T06:27:41.736Z,94074.00
2024-03-04T06:28:41.754Z,94075.00
2024-03-04T06:29:41.764Z,94073.00
2024-03-04T06:30:41.816Z,94076.00
2024-03-04T06:31:41.830Z,94076.00
2024-03-04T06:32:41.907Z,94078.00
2024-03-04T06:33:51.492Z,94078.00
2024-03-04T06:34:42.951Z,94084.00
2024-03-04T06:35:41.867Z,94084.00
2024-03-04T06:36:41.873Z,94087.00
2024-03-04T06:37:41.946Z,94090.00
2024-03-04T06:38:41.891Z,94088.00
2024-03-04T06:39:41.873Z,94094.00
2024-03-04T06:40:41.942Z,94098.00
2024-03-04T06:41:41.847Z,94096.00
2024-03-04T06:42:41.882Z,94099.00
2024-03-04T06:43:41.999Z,94101.00
2024-03-04T06:44:41.869Z,94097.00
2024-03-04T06:45:41.909Z,94099.00
2024-03-04T06:46:41.886Z,94102.00
2024-03-04T06:47:41.913Z,94104.00
2024-03-04T06:48:41.875Z,94108.00
2024-03-04T06:49:41.922Z,94105.00
2024-03-04T06:50:41.903Z,94105.00
2024-03-04T06:51:41.898Z,94105.00
2024-03-04T06:52:41.971Z,94106.00
2024-03-04T06:53:41.870Z,94107.00
2024-03-04T06:54:41.878Z,94104.00
2024-03-04T06:55:42.033Z,94106.00
2024-03-04T06:56:41.992Z,94104.00
2024-03-04T06:57:42.053Z,94106.00
2024-03-04T06:58:42.145Z,94103.00
2024-03-04T06:59:42.132Z,94103.00
2024-03-04T07:00:44.052Z,94105.00
2024-03-04T07:01:42.313Z,94104.00
2024-03-04T07:02:42.269Z,94103.00
2024-03-04T07:03:42.304Z,94106.00
2024-03-04T07:04:42.444Z,94106.00
2024-03-04T07:05:42.365Z,94103.00
2024-03-04T07:06:42.361Z,94102.00
2024-03-04T07:07:42.460Z,94103.00
2024-03-04T07:08:42.434Z,94106.00
2024-03-04T07:09:42.468Z,94103.00
2024-03-04T07:10:42.577Z,94109.00
2024-03-04T07:11:42.501Z,94107.00
2024-03-04T07:12:42.491Z,94109.00
2024-03-04T07:13:42.550Z,94110.00
2024-03-04T07:14:42.497Z,94114.00
2024-03-04T07:15:42.509Z,94113.00
2024-03-04T07:16:42.593Z,94115.00
2024-03-04T07:17:42.552Z,94115.00
2024-03-04T07:18:42.554Z,94120.00
2024-03-04T07:19:42.611Z,94117.00
2024-03-04T07:20:42.568Z,94120.00
2024-03-04T07:21:42.520Z,94122.00
2024-03-04T07:22:42.700Z,94124.00
2024-03-04T07:23:42.545Z,94126.00
2024-03-04T07:24:42.589Z,94125.00
2024-03-04T07:25:42.646Z,94126.00
2024-03-04T07:26:42.666Z,94129.00
2024-03-04T07:27:42.696Z,94130.00
2024-03-04T07:28:42.787Z,94130.00
2024-03-04T07:29:48.530Z,94132.00
2024-03-04T07:30:43.735Z,94128.00
2024-03-04T07:31:42.788Z,94128.00
2024-03-04T07:32:42.830Z,94130.00
2024-03-04T07:33:42.738Z,94129.00
2024-03-04T07:34:42.794Z,94128.00
2024-03-04T07:35:42.744Z,94128.00
2024-03-04T07:36:42.731Z,94129.00
2024-03-04T07:37:42.840Z,94126.00
2024-03-04T07:38:42.792Z,94126.00
2024-03-04T07:39:42.841Z,94126.00
2024-03-04T07:40:42.942Z,94128.00
2024-03-04T07:41:43.051Z,94126.00
2024-03-04T07:42:43.043Z,94129.00
2024-03-04T07:43:43.155Z,94129.00
2024-03-04T07:44:43.159Z,94126.00
2024-03-04T07:45:43.264Z,94124.00
2024-03-04T07:46:43.422Z,94124.00
2024-03-04T07:47:43.412Z,94127.00
2024-03-04T07:48:43.466Z,94130.00
2024-03-04T07:49:43.494Z,94128.00
2024-03-04T07:50:43.585Z,94136.00
2024-03-04T07:51:43.652Z,94139.00
2024-03-04T07:52:43.804Z,94138.00
2024-03-04T07:53:44.780Z,94138.00
2024-03-04T07:54:43.859Z,94138.00
2024-03-04T07:55:43.925Z,94140.00
2024-03-04T07:56:43.985Z,94140.00
2024-03-04T07:57:44.060Z,94141.00
2024-03-04T07:58:44.105Z,94138.00
2024-03-04T07:59:44.121Z,94140.00
2024-03-04T08:00:44.188Z,94139.00
2024-03-04T08:01:44.240Z,94136.00
2024-03-04T08:02:44.359Z,94137.00
2024-03-04T08:03:44.425Z,94138.00
2024-03-04T08:04:44.494Z,94136.00
2024-03-04T08:05:44.429Z,94136.00
2024-03-04T08:06:44.463Z,94136.00
2024-03-04T08:07:44.529Z,94136.00
2024-03-04T08:08:44.550Z,94136.00
2024-03-04T08:09:44.617Z,94137.00
2024-03-04T08:10:44.804Z,94136.00
2024-03-04T08:11:44.766Z,94137.00
2024-03-04T08:12:44.763Z,94139.00
2024-03-04T08:13:44.893Z,94136.00
2024-03-04T08:14:44.885Z,94136.00
2024-03-04T08:15:44.939Z,94136.00
2024-03-04T08:16:45.016Z,94137.00
2024-03-04T08:17:54.267Z,94136.00
2024-03-04T08:18:46.114Z,94138.00
2024-03-04T08:19:45.110Z,94135.00
2024-03-04T08:20:45.051Z,94134.00
2024-03-04T08:21:45.052Z,94137.00
2024-03-04T08:22:45.146Z,94135.00
2024-03-04T08:23:45.047Z,94132.00
2024-03-04T08:24:45.062Z,94131.00
2024-03-04T08:25:45.199Z,94132.00
2024-03-04T08:26:45.029Z,94130.00
2024-03-04T08:27:45.094Z,94131.00
2024-03-04T08:28:45.081Z,94131.00
2024-03-04T08:29:45.049Z,94130.00
2024-03-04T08:30:45.095Z,94134.00
2024-03-04T08:31:45.183Z,94135.00
2024-03-04T08:32:45.205Z,94136.00
2024-03-04T08:33:45.226Z,94135.00
2024-03-04T08:34:46.774Z,94136.00
2024-03-04T08:35:45.293Z,94137.00
2024-03-04T08:36:45.339Z,94137.00
2024-03-04T08:37:45.586Z,94139.00
2024-03-04T08:38:45.416Z,94138.00
2024-03-04T08:39:45.469Z,94140.00
2024-03-04T08:40:45.501Z,94140.00
2024-03-04T08:41:45.554Z,94136.00
2024-03-04T08:42:45.587Z,94137.00
2024-03-04T08:43:45.680Z,94141.00
2024-03-04T08:44:45.623Z,94138.00
2024-03-04T08:45:45.641Z,94140.00
2024-03-04T08:46:45.821Z,94138.00
2024-03-04T08:47:45.698Z,94137.00
2024-03-04T08:48:45.675Z,94139.00
2024-03-04T08:49:45.823Z,94141.00
2024-03-04T08:50:45.673Z,94138.00
2024-03-04T08:51:45.750Z,94137.00
2024-03-04T08:52:45.834Z,94141.00
2024-03-04T08:53:45.834Z,94142.00
2024-03-04T08:54:45.905Z,94141.00
2024-03-04T08:55:46.058Z,94140.00
2024-03-04T08:56:46.026Z,94141.00
2024-03-04T08:57:46.106Z,94143.00
2024-03-04T08:58:46.240Z,94142.00
2024-03-04T08:59:46.204Z,94140.00
2024-03-04T09:00:46.311Z,94140.00
2024-03-04T09:01:46.357Z,94144.00
2024-03-04T09:02:46.401Z,94145.00
2024-03-04T09:03:46.552Z,94144.00
2024-03-04T09:04:46.731Z,94145.00
2024-03-04T09:05:46.593Z,94145.00
2024-03-04T09:06:46.690Z,94147.00
2024-03-04T09:07:46.739Z,94145.00
2024-03-04T09:08:46.795Z,94148.00
2024-03-04T09:09:46.893Z,94147.00
2024-03-04T09:10:47.004Z,94150.00
2024-03-04T09:11:47.084Z,94149.00
2024-03-04T09:12:47.075Z,94151.00
2024-03-04T09:13:47.189Z,94150.00
2024-03-04T09:14:47.191Z,94150.00
2024-03-04T09:15:47.281Z,94149.00
2024-03-04T09:16:47.341Z,94150.00
2024-03-04T09:17:47.392Z,94150.00
2024-03-04T09:18:47.466Z,94150.00
2024-03-04T09:19:47.523Z,94152.00
2024-03-04T09:20:47.580Z,94151.00
2024-03-04T09:21:47.612Z,94150.00
2024-03-04T09:22:47.750Z,94152.00
2024-03-04T09:23:47.764Z,94150.00
2024-03-04T09:24:47.828Z,94150.00
2024-03-04T09:25:47.928Z,94151.00
2024-03-04T09:26:47.939Z,94147.00
2024-03-04T09:27:47.967Z,94146.00
2024-03-04T09:28:48.103Z,94147.00
2024-03-04T09:29:48.146Z,94144.00
2024-03-04T09:30:48.183Z,94147.00
2024-03-04T09:31:48.354Z,94146.00
2024-03-04T09:32:48.350Z,94141.00
2024-03-04T09:33:48.393Z,94141.00
2024-03-04T09:34:48.490Z,94139.00
2024-03-04T09:35:48.510Z,94139.00
2024-03-04T09:36:48.566Z,94139.00
2024-03-04T09:37:48.659Z,94136.00
2024-03-04T09:38:48.721Z,94136.00
2024-03-04T09:39:48.714Z,94137.00
2024-03-04T09:40:48.823Z,94137.00
2024-03-04T09:41:48.771Z,94135.00
2024-03-04T09:42:48.838Z,94136.00
2024-03-04T09:43:48.866Z,94135.00
2024-03-04T09:44:48.884Z,94134.00
2024-03-04T09:45:48.935Z,94133.00
2024-03-04T09:46:49.053Z,94134.00
2024-03-04T09:47:49.069Z,94131.00
2024-03-04T09:48:49.110Z,94128.00
2024-03-04T09:49:49.168Z,94127.00
2024-03-04T09:50:49.199Z,94129.00
2024-03-04T09:51:49.243Z,94129.00
2024-03-04T09:52:49.325Z,94130.00
2024-03-04T09:53:49.304Z,94129.00
2024-03-04T09:54:49.400Z,94130.00
2024-03-04T09:55:49.517Z,94131.00
2024-03-04T09:56:49.473Z,94133.00
2024-03-04T09:57:49.519Z,94130.00
2024-03-04T09:58:49.634Z,94128.00
2024-03-04T09:59:49.572Z,94129.00
2024-03-04T10:00:49.638Z,94129.00
2024-03-04T10:01:49.658Z,94128.00
2024-03-04T10:02:49.600Z,94127.00
2024-03-04T10:03:49.629Z,94128.00
2024-03-04T10:04:49.778Z,94130.00
2024-03-04T10:05:49.738Z,94125.00
2024-03-04T10:06:49.807Z,94126.00
2024-03-04T10:07:49.902Z,94125.00
2024-03-04T10:08:49.892Z,94122.00
2024-03-04T10:09:50.026Z,94118.00
2024-03-04T10:10:50.399Z,94121.00
2024-03-04T10:11:50.152Z,94121.00
2024-03-04T10:12:50.165Z,94117.00
2024-03-04T10:13:50.249Z,94117.00
2024-03-04T10:14:50.249Z,94117.00
2024-03-04T10:15:50.263Z,94116.00
2024-03-04T10:16:50.297Z,94116.00
2024-03-04T10:17:50.354Z,94113.00
2024-03-04T10:18:50.377Z,94113.00
2024-03-04T10:19:50.489Z,94113.00
2024-03-04T10:20:50.521Z,94114.00
2024-03-04T10:21:50.570Z,94112.00
2024-03-04T10:22:50.588Z,94115.00
2024-03-04T10:23:50.623Z,94114.00
2024-03-04T10:24:50.694Z,94112.00
2024-03-04T10:25:50.894Z,94110.00
2024-03-04T10:26:50.847Z,94111.00
2024-03-04T10:27:50.919Z,94112.00
2024-03-04T10:28:51.032Z,94109.00
2024-03-04T10:29:51.037Z,94108.00
2024-03-04T10:30:51.121Z,94109.00
2024-03-04T10:31:51.263Z,94108.00
2024-03-04T10:32:51.330Z,94109.00
2024-03-04T10:33:51.307Z,94107.00
2024-03-04T10:34:51.512Z,94105.00
2024-03-04T10:35:53.569Z,94107.00
2024-03-04T10:36:51.537Z,94107.00
2024-03-04T10:37:51.605Z,94107.00
2024-03-04T10:38:51.645Z,94106.00
2024-03-04T10:39:51.735Z,94104.00
2024-03-04T10:40:51.841Z,94102.00
2024-03-04T10:41:51.835Z,94100.00
2024-03-04T10:42:51.894Z,94100.00
2024-03-04T10:43:51.993Z,94099.00
2024-03-04T10:44:52.029Z,94097.00
2024-03-04T10:45:52.038Z,94096.00
2024-03-04T10:46:52.091Z,94094.00
2024-03-04T10:47:52.173Z,94094.00
2024-03-04T10:48:52.085Z,94093.00
2024-03-04T10:49:52.098Z,94093.00
2024-03-04T10:50:52.101Z,94092.00
2024-03-04T10:52:03.614Z,94092.00
2024-03-04T10:52:53.137Z,94089.00
2024-03-04T10:53:52.081Z,94090.00
2024-03-04T10:54:52.155Z,94088.00
2024-03-04T10:55:52.284Z,94088.00
2024-03-04T10:56:52.093Z,94089.00
2024-03-04T10:57:52.080Z,94088.00
2024-03-04T10:58:52.141Z,94086.00
2024-03-04T10:59:52.117Z,94085.00
2024-03-04T11:00:52.281Z,94084.00
2024-03-04T11:01:52.402Z,94081.00
2024-03-04T11:02:58.917Z,94080.00
2024-03-04T11:03:52.333Z,94078.00
2024-03-04T11:04:52.374Z,94079.00
2024-03-04T11:05:52.331Z,94079.00
2024-03-04T11:06:52.298Z,94076.00
2024-03-04T11:07:52.417Z,94074.00
2024-03-04T11:08:52.328Z,94074.00
2024-03-04T11:09:52.323Z,94074.00
2024-03-04T11:10:52.481Z,94071.00
2024-03-04T11:11:52.367Z,94071.00
2024-03-04T11:12:52.315Z,94070.00
2024-03-04T11:13:52.350Z,94067.00
2024-03-04T11:14:52.323Z,94069.00
2024-03-04T11:15:52.345Z,94067.00
2024-03-04T11:16:52.379Z,94066.00
2024-03-04T11:17:52.369Z,94067.00
2024-03-04T11:18:52.325Z,94064.00
2024-03-04T11:19:52.439Z,94063.00
2024-03-04T11:20:52.352Z,94064.00
2024-03-04T11:21:52.345Z,94064.00
2024-03-04T11:22:52.464Z,94065.00
2024-03-04T11:23:52.351Z,94063.00
2024-03-04T11:24:52.362Z,94062.00
2024-03-04T11:25:52.404Z,94061.00
2024-03-04T11:26:52.347Z,94058.00
2024-03-04T11:27:52.392Z,94057.00
2024-03-04T11:28:52.432Z,94056.00
2024-03-04T11:29:52.359Z,94054.00
2024-03-04T11:30:52.382Z,94054.00
2024-03-04T11:31:52.366Z,94051.00
2024-03-04T11:32:52.382Z,94051.00
2024-03-04T11:33:52.360Z,94049.00
2024-03-04T11:34:52.383Z,94048.00
2024-03-04T11:35:52.341Z,94045.00
2024-03-04T11:36:52.376Z,94047.00
2024-03-04T11:37:52.810Z,94045.00
2024-03-04T11:38:52.445Z,94045.00
2024-03-04T11:39:54.521Z,94044.00
2024-03-04T11:40:52.399Z,94043.00
2024-03-04T11:41:52.371Z,94043.00
2024-03-04T11:42:52.370Z,94046.00
2024-03-04T11:43:52.445Z,94043.00
2024-03-04T11:44:52.384Z,94046.00
2024-03-04T11:45:52.388Z,94044.00